createdAt,value
2022-09-04T00:00:15.472Z,6.03
2022-09-04T00:03:08.657Z,6.67
2022-09-04T00:05:39.710Z,6.93
2022-09-04T00:08:25.069Z,6.53
2022-09-04T00:11:27.047Z,6.70
2022-09-04T00:14:07.357Z,6.97
2022-09-04T00:16:43.007Z,7.83
2022-09-04T00:19:16.875Z,7.10
2022-09-04T00:21:51.095Z,6.63
2022-09-04T00:24:42.310Z,7.37
2022-09-04T00:27:21.740Z,7.10
2022-09-04T00:29:55.455Z,6.97
2022-09-04T00:32:39.922Z,6.73
2022-09-04T00:35:17.012Z,7.70
2022-09-04T00:38:03.434Z,7.47
2022-09-04T00:40:35.795Z,7.53
2022-09-04T00:43:36.611Z,7.53
2022-09-04T00:46:31.984Z,7.80
2022-09-04T00:49:36.591Z,6.90
2022-09-04T00:52:36.948Z,7.73
2022-09-04T00:55:41.155Z,7.00
2022-09-04T00:58:30.362Z,7.53
2022-09-04T01:00:58.474Z,8.53
2022-09-04T01:03:53.537Z,8.20
2022-09-04T01:06:32.067Z,7.10
2022-09-04T01:09:44.136Z,7.23
2022-09-04T01:12:30.074Z,7.00
2022-09-04T01:15:14.681Z,7.37
2022-09-04T01:17:52.556Z,8.07
2022-09-04T01:20:28.150Z,7.60
2022-09-04T01:23:17.243Z,7.30
2022-09-04T01:26:00.897Z,7.30
2022-09-04T01:28:49.757Z,7.93
2022-09-04T01:31:25.124Z,7.77
2022-09-04T01:34:35.783Z,7.13
2022-09-04T01:37:44.011Z,7.70
2022-09-04T01:40:24.030Z,7.57
2022-09-04T01:43:08.506Z,7.37
2022-09-04T01:45:53.321Z,7.83
2022-09-04T01:48:27.781Z,7.47
2022-09-04T01:50:58.499Z,7.97
2022-09-04T01:53:26.679Z,7.27
2022-09-04T01:56:21.855Z,6.50
2022-09-04T01:58:56.798Z,8.27
2022-09-04T02:01:32.169Z,7.43
2022-09-04T02:04:22.197Z,7.50
2022-09-04T02:07:15.615Z,8.00
2022-09-04T02:10:01.577Z,7.60
2022-09-04T02:12:38.146Z,7.00
2022-09-04T02:15:13.445Z,7.00
2022-09-04T02:17:47.409Z,7.73
2022-09-04T02:20:24.099Z,8.17
2022-09-04T02:23:11.865Z,7.30
2022-09-04T02:25:58.269Z,6.87
2022-09-04T02:28:47.848Z,7.90
2022-09-04T02:31:32.865Z,7.40
2022-09-04T02:34:13.674Z,8.00
2022-09-04T02:36:47.119Z,7.73
2022-09-04T02:39:36.945Z,7.90
2022-09-04T02:42:24.216Z,7.80
2022-09-04T02:44:53.913Z,7.53
2022-09-04T02:47:51.532Z,7.33
2022-09-04T02:50:46.329Z,7.50
2022-09-04T02:53:51.688Z,7.27
2022-09-04T02:56:31.376Z,6.40
2022-09-04T02:59:19.839Z,7.93
2022-09-04T03:01:58.223Z,7.33
2022-09-04T03:04:39.379Z,7.23
2022-09-04T03:07:13.784Z,6.63
2022-09-04T03:09:52.701Z,7.67
2022-09-04T03:12:30.158Z,7.37
2022-09-04T03:15:17.799Z,7.43
2022-09-04T03:17:49.304Z,7.00
2022-09-04T03:20:53.042Z,7.27
2022-09-04T03:23:43.641Z,6.63
2022-09-04T03:26:18.948Z,7.23
2022-09-04T03:29:01.135Z,6.83
2022-09-04T03:31:39.444Z,6.90
2022-09-04T03:34:30.207Z,7.67
2022-09-04T03:37:12.833Z,7.17
2022-09-04T03:40:09.185Z,7.90
2022-09-04T03:42:58.118Z,7.40
2022-09-04T03:45:36.961Z,7.57
2022-09-04T03:48:27.657Z,6.73
2022-09-04T03:51:33.423Z,6.97
2022-09-04T03:54:37.370Z,7.00
2022-09-04T03:57:15.953Z,7.20
2022-09-04T03:59:55.102Z,6.30
2022-09-04T04:03:00.830Z,7.93
2022-09-04T04:05:52.869Z,7.60
2022-09-04T04:08:37.822Z,7.30
2022-09-04T04:11:07.401Z,7.47
2022-09-04T04:14:01.790Z,6.77
2022-09-04T04:16:40.774Z,7.07
2022-09-04T04:19:29.035Z,7.13
2022-09-04T04:22:06.502Z,7.00
2022-09-04T04:25:12.361Z,7.33
2022-09-04T04:27:44.716Z,7.50
2022-09-04T04:30:15.103Z,7.10
2022-09-04T04:33:19.893Z,8.50
2022-09-04T04:36:17.795Z,7.33
2022-09-04T04:38:56.303Z,7.60
2022-09-04T04:41:55.812Z,7.67
2022-09-04T04:44:50.312Z,6.30
2022-09-04T04:47:41.031Z,7.27
2022-09-04T04:50:22.428Z,7.10
2022-09-04T04:53:14.644Z,7.83
2022-09-04T04:56:04.580Z,7.80
2022-09-04T04:58:51.251Z,7.33
2022-09-04T05:01:25.669Z,7.70
2022-09-04T05:04:13.863Z,8.03
2022-09-04T05:06:50.982Z,7.60
2022-09-04T05:09:33.598Z,7.87
2022-09-04T05:12:11.542Z,7.57
2022-09-04T05:14:45.835Z,8.03
2022-09-04T05:17:36.255Z,7.90
2022-09-04T05:20:23.919Z,8.03
2022-09-04T05:23:09.589Z,9.00
2022-09-04T05:26:14.976Z,9.07
2022-09-04T05:29:05.150Z,9.20
2022-09-04T05:31:49.158Z,8.80
2022-09-04T05:34:36.849Z,8.73
2022-09-04T05:37:07.934Z,9.53
2022-09-04T05:39:48.323Z,9.23
2022-09-04T05:42:34.038Z,9.17
2022-09-04T05:45:21.861Z,9.07
2022-09-04T05:48:02.717Z,8.63
2022-09-04T05:50:31.972Z,8.47
2022-09-04T05:53:14.524Z,7.67
2022-09-04T05:56:05.159Z,7.97
2022-09-04T05:59:03.160Z,7.53
2022-09-04T06:01:56.951Z,7.43
2022-09-04T06:04:39.835Z,7.53
2022-09-04T06:07:27.712Z,7.53
2022-09-04T06:10:00.446Z,8.37
2022-09-04T06:12:48.377Z,8.27
2022-09-04T06:16:03.183Z,8.07
2022-09-04T06:19:16.821Z,8.00
2022-09-04T06:21:43.525Z,7.17
2022-09-04T06:24:21.099Z,7.70
2022-09-04T06:27:08.775Z,7.53
2022-09-04T06:29:54.257Z,6.80
2022-09-04T06:32:27.736Z,7.13
2022-09-04T06:35:12.049Z,7.03
2022-09-04T06:38:16.207Z,6.53
2022-09-04T06:41:08.521Z,7.17
2022-09-04T06:43:58.492Z,7.10
2022-09-04T06:46:34.433Z,7.30
2022-09-04T06:49:10.038Z,5.90
2022-09-04T06:51:52.330Z,6.80
2022-09-04T06:55:01.353Z,6.17
2022-09-04T06:57:46.431Z,5.20
2022-09-04T07:00:17.726Z,5.57
2022-09-04T07:02:55.823Z,4.90
2022-09-04T07:05:40.505Z,4.43
2022-09-04T07:08:33.647Z,4.43
2022-09-04T07:11:21.210Z,4.97
2022-09-04T07:13:54.516Z,4.13
2022-09-04T07:16:33.177Z,4.18
2022-09-04T07:19:37.451Z,4.18
2022-09-04T07:22:34.846Z,3.83
2022-09-04T07:25:04.037Z,3.83
2022-09-04T07:27:41.061Z,3.13
2022-09-04T07:30:12.411Z,3.05
2022-09-04T07:32:49.424Z,3.47
2022-09-04T07:35:38.376Z,2.70
2022-09-04T07:38:37.730Z,3.25
2022-09-04T07:41:32.495Z,3.00
2022-09-04T07:44:17.486Z,2.90
2022-09-04T07:46:52.585Z,2.80
2022-09-04T07:49:58.266Z,3.13
2022-09-04T07:53:03.023Z,3.03
2022-09-04T07:55:36.891Z,2.90
2022-09-04T07:58:37.443Z,2.80
2022-09-04T08:01:23.329Z,3.05
2022-09-04T08:04:09.724Z,3.45
2022-09-04T08:06:39.063Z,3.38
2022-09-04T08:09:33.907Z,3.45
2022-09-04T08:12:32.324Z,3.15
2022-09-04T08:15:05.882Z,3.30
2022-09-04T08:17:51.309Z,3.10
2022-09-04T08:20:46.910Z,3.80
2022-09-04T08:23:35.889Z,3.23
2022-09-04T08:26:27.317Z,3.70
2022-09-04T08:29:14.138Z,3.87
2022-09-04T08:31:43.412Z,3.40
2022-09-04T08:34:46.262Z,3.27
2022-09-04T08:37:50.401Z,3.30
2022-09-04T08:40:38.839Z,3.87
2022-09-04T08:43:29.316Z,3.60
2022-09-04T08:46:28.735Z,3.53
2022-09-04T08:49:23.126Z,3.90
2022-09-04T08:52:01.541Z,3.37
2022-09-04T08:54:51.044Z,3.67
2022-09-04T08:57:47.257Z,3.40
2022-09-04T09:00:45.676Z,3.33
2022-09-04T09:03:36.926Z,4.00
2022-09-04T09:06:21.465Z,3.43
2022-09-04T09:09:21.977Z,3.40
2022-09-04T09:11:54.308Z,3.40
2022-09-04T09:14:42.480Z,3.50
2022-09-04T09:17:38.542Z,3.80
2022-09-04T09:20:42.383Z,3.77
2022-09-04T09:23:18.125Z,3.70
2022-09-04T09:26:23.740Z,4.30
2022-09-04T09:29:09.198Z,4.40
2022-09-04T09:31:55.131Z,3.73
2022-09-04T09:35:01.417Z,4.30
2022-09-04T09:37:48.984Z,3.90
2022-09-04T09:40:28.274Z,3.70
2022-09-04T09:43:12.538Z,4.17
2022-09-04T09:46:00.810Z,4.27
2022-09-04T09:49:04.806Z,3.63
2022-09-04T09:51:51.266Z,4.00
2022-09-04T09:54:38.044Z,3.67
2022-09-04T09:57:38.980Z,4.43
2022-09-04T10:00:15.929Z,4.57
2022-09-04T10:03:02.736Z,4.03
2022-09-04T10:05:54.346Z,4.33
2022-09-04T10:09:01.054Z,4.60
2022-09-04T10:12:01.734Z,4.23
2022-09-04T10:14:53.764Z,4.50
2022-09-04T10:17:33.836Z,5.10
2022-09-04T10:20:15.445Z,5.00
2022-09-04T10:23:04.484Z,5.10
2022-09-04T10:25:56.372Z,4.83
2022-09-04T10:28:57.991Z,4.40
2022-09-04T10:31:31.272Z,4.57
2022-09-04T10:34:24.293Z,4.63
2022-09-04T10:37:21.139Z,4.43
2022-09-04T10:40:25.191Z,4.30
2022-09-04T10:43:17.092Z,4.47
2022-09-04T10:46:02.404Z,4.70
2022-09-04T10:48:54.095Z,4.33
2022-09-04T10:51:31.673Z,4.93
2022-09-04T10:54:11.146Z,4.43
2022-09-04T10:57:03.718Z,4.73
2022-09-04T11:00:06.048Z,4.57
2022-09-04T11:03:03.496Z,5.03
2022-09-04T11:06:02.317Z,5.13
2022-09-04T11:08:50.958Z,5.03
2022-09-04T11:11:36.230Z,4.73
2022-09-04T11:14:28.384Z,4.43
2022-09-04T11:17:28.383Z,4.87
2022-09-04T11:20:00.871Z,3.80
2022-09-04T11:22:58.148Z,4.30
2022-09-04T11:25:45.697Z,4.80
2022-09-04T11:28:40.352Z,4.20
2022-09-04T11:31:25.319Z,4.17
2022-09-04T11:34:11.687Z,4.40
2022-09-04T11:36:58.357Z,4.70
2022-09-04T11:39:52.821Z,4.50
2022-09-04T11:42:29.378Z,5.50
2022-09-04T11:45:27.088Z,4.07
2022-09-04T11:48:01.204Z,4.43
2022-09-04T11:50:38.573Z,4.47
2022-09-04T11:53:40.598Z,4.20
2022-09-04T11:56:25.578Z,4.50
2022-09-04T11:59:21.243Z,4.03
2022-09-04T12:02:09.213Z,4.30
2022-09-04T12:05:04.291Z,4.30
2022-09-04T12:07:55.351Z,4.57
2022-09-04T12:10:47.839Z,4.50
2022-09-04T12:13:16.966Z,4.33
2022-09-04T12:15:58.490Z,4.30
2022-09-04T12:18:54.432Z,3.67
2022-09-04T12:21:53.256Z,3.90
2022-09-04T12:24:58.161Z,4.37
2022-09-04T12:27:46.215Z,4.17
2022-09-04T12:30:23.605Z,4.37
2022-09-04T12:33:20.706Z,4.17
2022-09-04T12:36:06.282Z,4.20
2022-09-04T12:39:02.902Z,4.80
2022-09-04T12:41:50.034Z,4.33
2022-09-04T12:44:38.356Z,4.17
2022-09-04T12:47:14.066Z,4.13
2022-09-04T12:49:46.608Z,4.50
2022-09-04T12:52:22.061Z,4.03
2022-09-04T12:55:03.483Z,4.27
2022-09-04T12:58:01.090Z,4.60
2022-09-04T13:00:40.899Z,3.87
2022-09-04T13:03:17.439Z,4.00
2022-09-04T13:05:54.084Z,3.77
2022-09-04T13:08:39.445Z,4.27
2022-09-04T13:11:34.747Z,4.33
2022-09-04T13:14:31.611Z,3.70
2022-09-04T13:17:20.310Z,4.53
2022-09-04T13:20:00.162Z,4.37
2022-09-04T13:22:58.473Z,4.30
2022-09-04T13:25:34.028Z,4.30
2022-09-04T13:28:29.282Z,3.90
2022-09-04T13:31:19.822Z,3.83
2022-09-04T13:34:10.036Z,4.30
2022-09-04T13:36:55.199Z,4.20
2022-09-04T13:39:28.053Z,5.10
2022-09-04T13:42:06.702Z,4.80
2022-09-04T13:44:51.036Z,3.87
2022-09-04T13:47:32.443Z,3.70
2022-09-04T13:50:08.688Z,3.40
2022-09-04T13:52:46.248Z,4.50
2022-09-04T13:55:18.385Z,3.70
2022-09-04T13:58:03.864Z,4.50
2022-09-04T14:00:32.696Z,3.57
2022-09-04T14:03:03.651Z,3.83
2022-09-04T14:05:32.373Z,4.60
2022-09-04T14:08:05.310Z,7.20
2022-09-04T14:10:55.737Z,4.00
2022-09-04T14:13:58.744Z,3.80
2022-09-04T14:16:25.425Z,4.33
2022-09-04T14:19:15.650Z,3.30
2022-09-04T14:22:15.025Z,3.57
2022-09-04T14:25:11.703Z,4.23
2022-09-04T14:28:08.633Z,3.80
2022-09-04T14:30:58.895Z,3.20
2022-09-04T14:34:04.859Z,3.90
2022-09-04T14:36:49.766Z,3.70
2022-09-04T14:39:27.140Z,3.50
2022-09-04T14:42:16.352Z,3.70
2022-09-04T14:45:12.502Z,3.70
2022-09-04T14:47:47.122Z,3.40
2022-09-04T14:50:16.848Z,3.87
2022-09-04T14:52:53.352Z,4.20
2022-09-04T14:55:39.890Z,3.23
2022-09-04T14:58:18.073Z,3.40
2022-09-04T15:01:01.070Z,3.70
2022-09-04T15:03:35.107Z,2.97
2022-09-04T15:06:08.263Z,3.37
2022-09-04T15:08:40.610Z,3.37
2022-09-04T15:11:09.674Z,3.70
2022-09-04T15:13:55.684Z,3.37
2022-09-04T15:16:39.811Z,3.07
2022-09-04T15:19:26.624Z,3.33
2022-09-04T15:22:04.572Z,3.50
2022-09-04T15:24:38.154Z,3.27
2022-09-04T15:27:16.553Z,3.43
2022-09-04T15:30:03.872Z,3.23
2022-09-04T15:32:36.609Z,3.57
2022-09-04T15:35:24.208Z,3.47
2022-09-04T15:37:52.888Z,3.23
2022-09-04T15:40:34.542Z,3.30
2022-09-04T15:43:21.155Z,3.33
2022-09-04T15:45:53.314Z,3.20
2022-09-04T15:48:40.894Z,3.27
2022-09-04T15:51:19.145Z,3.00
2022-09-04T15:54:08.020Z,3.37
2022-09-04T15:56:39.529Z,3.23
2022-09-04T15:59:15.902Z,3.47
2022-09-04T16:02:11.816Z,3.27
2022-09-04T16:04:46.599Z,3.50
2022-09-04T16:07:19.707Z,3.60
2022-09-04T16:09:55.793Z,3.70
2022-09-04T16:12:34.443Z,3.03
2022-09-04T16:15:11.296Z,3.30
2022-09-04T16:17:45.225Z,3.23
2022-09-04T16:20:18.420Z,3.50
2022-09-04T16:22:52.002Z,3.63
2022-09-04T16:25:19.140Z,3.50
2022-09-04T16:27:54.258Z,3.27
2022-09-04T16:30:41.452Z,2.70
2022-09-04T16:33:27.268Z,3.83
2022-09-04T16:36:00.403Z,3.80
2022-09-04T16:38:32.397Z,4.33
2022-09-04T16:41:01.979Z,2.87
2022-09-04T16:43:32.237Z,3.20
2022-09-04T16:46:12.338Z,2.67
2022-09-04T16:48:50.613Z,2.40
2022-09-04T16:51:40.583Z,2.40
2022-09-04T16:54:28.634Z,2.37
2022-09-04T16:57:13.103Z,2.43
2022-09-04T17:00:01.166Z,2.30
2022-09-04T17:02:44.925Z,2.87
2022-09-04T17:05:19.704Z,2.50
2022-09-04T17:07:59.122Z,2.30
2022-09-04T17:10:55.018Z,2.20
2022-09-04T17:13:27.947Z,2.10
2022-09-04T17:16:12.190Z,2.17
2022-09-04T17:18:46.758Z,1.67
2022-09-04T17:24:36.592Z,1.97
2022-09-04T17:28:56.163Z,1.90
2022-09-04T17:29:08.799Z,1.90
2022-09-04T17:30:43.782Z,1.67
2022-09-04T17:39:01.159Z,1.73
2022-09-04T17:40:46.498Z,1.80
2022-09-04T17:40:53.608Z,1.33
2022-09-04T17:42:10.292Z,1.80
2022-09-04T17:44:50.491Z,1.23
2022-09-04T17:47:34.862Z,1.50
2022-09-04T17:50:02.735Z,1.30
2022-09-04T17:52:34.330Z,1.37
2022-09-04T17:55:10.783Z,1.57
2022-09-04T17:58:02.812Z,1.37
2022-09-04T18:00:50.184Z,1.60
2022-09-04T18:03:32.194Z,1.77
2022-09-04T18:06:21.909Z,1.37
2022-09-04T18:08:55.927Z,1.50
2022-09-04T18:11:27.799Z,1.50
2022-09-04T18:14:02.614Z,1.80
2022-09-04T18:17:12.116Z,1.37
2022-09-04T18:19:43.619Z,1.70
2022-09-04T18:22:46.111Z,1.63
2022-09-04T18:25:22.910Z,1.73
2022-09-04T18:28:12.526Z,1.83
2022-09-04T18:37:08.683Z,2.00
2022-09-04T18:37:19.199Z,1.70
2022-09-04T18:37:22.869Z,1.33
2022-09-04T18:39:48.819Z,2.03
2022-09-04T18:50:30.392Z,1.70
2022-09-04T18:50:31.249Z,1.67
2022-09-04T18:50:44.117Z,1.47
2022-09-04T18:51:35.015Z,1.73
2022-09-04T18:54:19.503Z,1.70
2022-09-04T18:56:49.594Z,1.53
2022-09-04T18:59:20.474Z,1.60
2022-09-04T19:02:10.892Z,1.70
2022-09-04T19:05:05.110Z,1.57
2022-09-04T19:07:53.168Z,1.90
2022-09-04T19:10:33.765Z,1.90
2022-09-04T19:13:08.418Z,1.90
2022-09-04T19:15:49.047Z,1.60
2022-09-04T19:18:27.110Z,1.63
2022-09-04T19:21:09.938Z,2.00
2022-09-04T19:24:05.299Z,1.80
2022-09-04T19:26:47.104Z,2.00
2022-09-04T19:29:13.799Z,3.73
2022-09-04T19:31:53.935Z,2.30
2022-09-04T19:34:31.315Z,1.80
2022-09-04T19:38:28.965Z,2.00
2022-09-04T19:46:02.563Z,2.10
2022-09-04T19:46:11.288Z,2.00
2022-09-04T19:46:17.920Z,2.00
2022-09-04T19:49:14.606Z,2.10
2022-09-04T19:53:32.907Z,2.07
2022-09-04T19:54:59.931Z,2.37
2022-09-04T19:57:40.061Z,2.03
2022-09-04T20:00:32.985Z,2.57
2022-09-04T20:03:05.622Z,2.00
2022-09-04T20:05:34.754Z,1.90
2022-09-04T20:08:16.937Z,2.27
2022-09-04T20:11:34.513Z,1.80
2022-09-04T20:14:13.921Z,1.70
2022-09-04T20:17:00.183Z,2.47
2022-09-04T20:19:38.718Z,2.10
2022-09-04T20:22:13.716Z,1.87
2022-09-04T20:25:18.306Z,2.10
2022-09-04T20:27:51.075Z,2.13
2022-09-04T20:30:25.077Z,1.83
2022-09-04T20:33:17.839Z,2.30
2022-09-04T20:35:59.006Z,1.60
2022-09-04T20:38:32.596Z,1.60
2022-09-04T20:41:27.715Z,1.67
2022-09-04T20:44:03.539Z,2.00
2022-09-04T20:51:29.328Z,1.60
2022-09-04T20:52:52.043Z,1.80
2022-09-04T20:52:55.064Z,1.97
2022-09-04T20:55:31.821Z,1.70
2022-09-04T21:03:06.294Z,1.83
2022-09-04T21:03:17.936Z,1.80
2022-09-04T21:04:17.999Z,1.70
2022-09-04T21:06:58.953Z,1.60
2022-09-04T21:09:55.414Z,1.37
2022-09-04T21:12:33.440Z,1.80
2022-09-04T21:15:14.687Z,1.23
2022-09-04T21:17:47.390Z,1.57
2022-09-04T21:20:38.962Z,1.53
2022-09-04T21:24:03.052Z,1.50
2022-09-04T21:26:58.646Z,1.60
2022-09-04T21:30:06.272Z,1.50
2022-09-04T21:33:26.940Z,1.50
2022-09-04T21:36:26.862Z,1.57
2022-09-04T21:39:25.881Z,1.60
2022-09-04T21:42:41.451Z,1.13
2022-09-04T21:45:37.058Z,1.20
2022-09-04T21:48:41.618Z,1.07
2022-09-04T21:51:29.397Z,1.20
2022-09-04T21:54:38.199Z,1.10
2022-09-04T22:02:30.922Z,1.00
2022-09-04T22:02:36.081Z,1.00
2022-09-04T22:03:19.389Z,1.10
2022-09-04T22:06:04.365Z,1.20
2022-09-04T22:13:28.627Z,1.10
2022-09-04T22:13:34.247Z,1.00
2022-09-04T22:14:43.139Z,0.87
2022-09-04T22:17:12.373Z,1.00
2022-09-04T22:19:50.611Z,1.00
2022-09-04T22:22:40.530Z,0.80
2022-09-04T22:25:26.588Z,1.20
2022-09-04T22:28:14.786Z,1.00
2022-09-04T22:31:09.241Z,0.73
2022-09-04T22:34:17.743Z,0.87
2022-09-04T22:37:22.038Z,1.13
2022-09-04T22:40:12.638Z,0.93
2022-09-04T22:42:46.355Z,1.10
2022-09-04T22:45:27.874Z,0.70
2022-09-04T22:48:06.292Z,1.10
2022-09-04T22:51:06.417Z,1.00
2022-09-04T22:53:51.886Z,0.80
2022-09-04T22:56:49.244Z,0.93
2022-09-04T22:59:38.752Z,0.70
2022-09-04T23:02:20.938Z,0.90
2022-09-04T23:05:21.485Z,0.90
2022-09-04T23:13:43.264Z,0.77
2022-09-04T23:13:46.602Z,0.97
2022-09-04T23:14:08.284Z,0.80
2022-09-04T23:16:53.538Z,0.80
2022-09-04T23:26:34.241Z,1.10
2022-09-04T23:26:44.990Z,0.90
2022-09-04T23:26:59.406Z,0.80
2022-09-04T23:28:52.305Z,1.00
2022-09-04T23:31:37.779Z,0.90
2022-09-04T23:34:27.982Z,0.70
2022-09-04T23:37:01.078Z,0.80
2022-09-04T23:39:54.939Z,0.70
2022-09-04T23:42:55.428Z,0.93
2022-09-04T23:45:48.621Z,0.80
2022-09-04T23:48:39.075Z,0.90
2022-09-04T23:51:15.952Z,1.10
2022-09-04T23:53:58.200Z,0.80
2022-09-04T23:56:30.040Z,0.97
2022-09-04T23:59:36.598Z,1.17
